Time;durP1;ratioP1;P1;durP2;ratioP2;P2;SDS_P1;SDS_P2;PMS_P1;PMS_P2;Temp;Humidity;BMP_temperature;BMP_pressure;BME280_temperature;BME280_humidity;BME280_pressure;Samples;Min_cycle;Max_cycle;Signal;HPM_P1;HPM_P2
2023/05/18 00:01:09;;;;;;;9.80;3.30;;;8.60;99.90;;;;;;4993780;28;20042;-70
2023/05/18 00:03:35;;;;;;;10.17;3.83;;;8.60;99.90;;;;;;4976807;28;20060;-69
2023/05/18 00:06:06;;;;;;;7.13;2.87;;;8.50;99.90;;;;;;5008264;28;20485;-71
2023/05/18 00:08:36;;;;;;;10.00;3.30;;;8.50;99.90;;;;;;4993858;28;20128;-71
2023/05/18 00:11:03;;;;;;;7.33;3.27;;;8.50;99.90;;;;;;4977410;28;20054;-69
2023/05/18 00:13:29;;;;;;;9.57;3.30;;;8.50;99.90;;;;;;5013173;28;20093;-70
2023/05/18 00:15:55;;;;;;;8.93;3.07;;;8.50;99.90;;;;;;4996203;28;20096;-70
2023/05/18 00:18:23;;;;;;;5.33;3.10;;;8.40;99.90;;;;;;5015477;28;20198;-70
2023/05/18 00:20:59;;;;;;;8.73;3.77;;;8.40;99.90;;;;;;4982783;28;20168;-70
2023/05/18 00:23:28;;;;;;;6.87;3.27;;;8.40;99.90;;;;;;4996489;28;20140;-70
2023/05/18 00:25:55;;;;;;;8.93;3.20;;;8.30;99.90;;;;;;4984368;28;20418;-70
2023/05/18 00:28:21;;;;;;;9.77;3.70;;;8.30;99.90;;;;;;4997626;28;20074;-70
2023/05/18 00:30:47;;;;;;;7.03;3.50;;;8.40;99.90;;;;;;4967323;28;20045;-70
2023/05/18 00:33:12;;;;;;;9.73;3.47;;;8.30;99.90;;;;;;4966758;28;20042;-71
2023/05/18 00:35:38;;;;;;;7.37;3.47;;;8.40;99.90;;;;;;4983437;28;20052;-70
2023/05/18 00:38:04;;;;;;;9.43;3.40;;;8.40;99.90;;;;;;4999139;28;20135;-69
2023/05/18 00:40:29;;;;;;;11.70;3.70;;;8.30;99.90;;;;;;4982312;28;20145;-70
2023/05/18 00:42:55;;;;;;;10.23;3.70;;;8.30;99.90;;;;;;4985007;28;20286;-70
2023/05/18 00:45:21;;;;;;;9.73;2.93;;;8.30;99.90;;;;;;4964410;28;20561;-70
2023/05/18 00:47:47;;;;;;;9.13;3.50;;;8.30;99.90;;;;;;5018067;28;20041;-70
2023/05/18 00:50:13;;;;;;;8.73;3.40;;;8.30;99.90;;;;;;4995545;28;20130;-70
2023/05/18 00:52:39;;;;;;;7.17;3.43;;;8.30;99.90;;;;;;5018508;28;20429;-70
2023/05/18 00:55:07;;;;;;;13.33;3.83;;;8.30;99.90;;;;;;4982871;28;20070;-70
2023/05/18 00:57:32;;;;;;;7.27;3.40;;;8.30;99.90;;;;;;4979872;28;20049;-70
2023/05/18 00:59:59;;;;;;;8.37;3.40;;;8.40;99.90;;;;;;4980376;28;20101;-70
2023/05/18 01:02:28;;;;;;;6.73;3.10;;;8.40;99.90;;;;;;4998619;28;20048;-70
2023/05/18 01:04:55;;;;;;;9.60;3.40;;;8.40;99.90;;;;;;4980875;28;20097;-70
2023/05/18 01:07:25;;;;;;;12.10;3.73;;;8.40;99.90;;;;;;4997340;28;20108;-70
2023/05/18 01:09:52;;;;;;;11.97;3.60;;;8.30;99.90;;;;;;4983089;28;20052;-71
2023/05/18 01:12:28;;;;;;;8.00;3.43;;;8.30;99.90;;;;;;4984104;28;20061;-70
2023/05/18 01:15:27;;;;;;;8.93;3.13;;;8.20;99.90;;;;;;4997582;28;20050;-70
2023/05/18 01:17:59;;;;;;;8.73;3.40;;;8.20;99.90;;;;;;4995697;28;20049;-70
2023/05/18 01:20:36;;;;;;;8.55;3.40;;;8.10;99.90;;;;;;4995147;28;20057;-70
2023/05/18 01:23:19;;;;;;;10.00;3.03;;;8.10;99.90;;;;;;4982126;28;20057;-70
2023/05/18 01:25:54;;;;;;;9.93;3.83;;;8.10;99.90;;;;;;5014500;28;20408;-70
2023/05/18 01:28:31;;;;;;;7.63;3.60;;;8.10;99.90;;;;;;5013976;28;20062;-71
2023/05/18 01:30:57;;;;;;;9.40;3.47;;;8.10;99.90;;;;;;4982557;28;20042;-70
2023/05/18 01:33:24;;;;;;;7.70;3.27;;;8.10;99.90;;;;;;4995621;28;20371;-70
2023/05/18 01:35:50;;;;;;;10.50;3.57;;;8.10;99.90;;;;;;4997331;28;20448;-70
2023/05/18 01:38:22;;;;;;;10.50;3.50;;;8.10;99.90;;;;;;5011513;28;20084;-70
2023/05/18 01:40:53;;;;;;;6.25;3.38;;;8.10;99.90;;;;;;5015665;28;20037;-70
2023/05/18 01:43:22;;;;;;;5.43;3.15;;;8.10;99.90;;;;;;5001708;28;20076;-70
2023/05/18 01:45:53;;;;;;;9.23;3.37;;;8.10;99.90;;;;;;4996967;28;20490;-70
2023/05/18 01:48:22;;;;;;;8.87;3.23;;;8.10;99.90;;;;;;5009918;28;20090;-70
2023/05/18 01:50:50;;;;;;;9.80;3.50;;;8.00;99.90;;;;;;4973545;28;20057;-70
2023/05/18 01:53:25;;;;;;;8.40;3.13;;;8.00;99.90;;;;;;4997586;28;20084;-70
2023/05/18 01:55:53;;;;;;;5.87;2.90;;;8.00;99.90;;;;;;4980345;28;20064;-70
2023/05/18 01:58:20;;;;;;;7.53;3.63;;;8.00;99.90;;;;;;4979420;28;20053;-70
2023/05/18 02:00:46;;;;;;;7.67;3.47;;;8.00;99.90;;;;;;5013943;28;20081;-70
2023/05/18 02:03:13;;;;;;;11.60;3.27;;;8.00;99.90;;;;;;4962058;28;20049;-70
2023/05/18 02:05:39;;;;;;;5.57;3.20;;;8.00;99.90;;;;;;4996846;28;20096;-70
2023/05/18 02:08:05;;;;;;;5.83;3.10;;;8.10;99.90;;;;;;4994237;28;20065;-70
2023/05/18 02:10:31;;;;;;;7.50;3.07;;;8.10;99.90;;;;;;4974349;28;20240;-71
2023/05/18 02:12:56;;;;;;;9.17;3.43;;;8.00;99.90;;;;;;4961311;28;20030;-70
2023/05/18 02:15:22;;;;;;;6.37;3.20;;;8.00;99.90;;;;;;4966822;28;20052;-70
2023/05/18 02:17:48;;;;;;;7.20;3.77;;;8.00;99.90;;;;;;4996105;28;20041;-70
2023/05/18 02:20:17;;;;;;;9.80;3.30;;;8.00;99.90;;;;;;4961496;28;20045;-70
2023/05/18 02:22:43;;;;;;;9.73;4.63;;;8.00;99.90;;;;;;4995973;28;20037;-70
2023/05/18 02:25:10;;;;;;;10.70;3.70;;;8.00;99.90;;;;;;4993089;28;20045;-70
2023/05/18 02:27:35;;;;;;;8.53;3.20;;;8.00;99.90;;;;;;4978524;28;20105;-70
2023/05/18 02:30:04;;;;;;;6.27;3.10;;;7.90;99.90;;;;;;4963052;28;20057;-70
2023/05/18 02:32:31;;;;;;;9.03;3.43;;;7.80;99.90;;;;;;4998966;28;20057;-70
2023/05/18 02:35:01;;;;;;;8.37;3.30;;;7.80;99.90;;;;;;4980150;28;20049;-70
2023/05/18 02:37:27;;;;;;;9.37;3.50;;;7.90;99.90;;;;;;4997041;28;20038;-70
2023/05/18 02:39:53;;;;;;;6.63;3.77;;;7.80;99.90;;;;;;4972095;28;20049;-70
2023/05/18 02:42:19;;;;;;;11.00;3.50;;;7.90;99.90;;;;;;4978413;28;20105;-69
2023/05/18 02:44:45;;;;;;;9.57;3.20;;;7.90;99.90;;;;;;4945066;28;20171;-70
2023/05/18 02:47:10;;;;;;;7.37;3.20;;;7.90;99.90;;;;;;5016472;28;20042;-70
2023/05/18 02:49:36;;;;;;;7.47;3.10;;;7.90;99.90;;;;;;5000145;28;21161;-70
2023/05/18 02:52:02;;;;;;;9.73;3.50;;;7.80;99.90;;;;;;4957160;28;20041;-70
2023/05/18 02:54:27;;;;;;;7.60;3.30;;;7.70;99.90;;;;;;4995255;28;20050;-70
2023/05/18 02:56:55;;;;;;;6.23;3.20;;;7.80;99.90;;;;;;5015889;28;20034;-70
2023/05/18 02:59:21;;;;;;;6.53;3.00;;;7.80;99.90;;;;;;4992948;28;20060;-70
2023/05/18 03:01:47;;;;;;;6.70;3.10;;;7.70;99.90;;;;;;4964320;28;20041;-70
2023/05/18 03:04:12;;;;;;;9.83;3.30;;;7.70;99.90;;;;;;4979132;28;20037;-70
2023/05/18 03:06:39;;;;;;;9.33;3.40;;;7.70;99.90;;;;;;5011516;28;20049;-70
2023/05/18 03:09:04;;;;;;;6.10;3.73;;;7.70;99.90;;;;;;4966092;28;20077;-71
2023/05/18 03:11:30;;;;;;;9.27;3.20;;;7.70;99.90;;;;;;4993569;28;20416;-71
2023/05/18 03:13:56;;;;;;;9.77;3.53;;;7.70;99.90;;;;;;4979548;28;20120;-70
2023/05/18 03:16:27;;;;;;;7.80;3.10;;;7.70;99.90;;;;;;5013028;28;21042;-71
2023/05/18 03:18:53;;;;;;;9.63;3.80;;;7.70;99.90;;;;;;4962498;28;20052;-70
2023/05/18 03:21:20;;;;;;;10.30;3.50;;;7.70;99.90;;;;;;4997432;28;20049;-70
2023/05/18 03:23:46;;;;;;;7.47;3.20;;;7.70;99.90;;;;;;5011475;28;20128;-70
2023/05/18 03:26:12;;;;;;;9.43;3.47;;;7.70;99.90;;;;;;4977012;28;20041;-70
2023/05/18 03:28:38;;;;;;;10.03;3.83;;;7.70;99.90;;;;;;4969778;28;20062;-70
2023/05/18 03:31:04;;;;;;;11.87;3.40;;;7.70;99.90;;;;;;4994042;28;20128;-70
2023/05/18 03:33:30;;;;;;;6.90;3.30;;;7.70;99.90;;;;;;4990538;28;20092;-70
2023/05/18 03:35:56;;;;;;;9.17;3.37;;;7.80;99.90;;;;;;5007053;28;20606;-70
2023/05/18 03:38:21;;;;;;;10.07;3.30;;;7.80;99.90;;;;;;4979195;28;20056;-70
2023/05/18 03:40:47;;;;;;;9.83;3.33;;;7.80;99.90;;;;;;4981409;28;20065;-70
2023/05/18 03:43:13;;;;;;;8.90;3.30;;;7.80;99.90;;;;;;4966662;28;20042;-70
2023/05/18 03:45:38;;;;;;;5.97;3.17;;;7.80;99.90;;;;;;4989764;28;20046;-70
2023/05/18 03:48:05;;;;;;;9.10;3.80;;;7.80;99.90;;;;;;4948616;28;20046;-70
2023/05/18 03:50:31;;;;;;;6.80;3.10;;;7.70;99.90;;;;;;4959956;28;20045;-70
2023/05/18 03:52:57;;;;;;;5.40;2.70;;;7.70;99.90;;;;;;4967622;28;20056;-70
2023/05/18 03:55:22;;;;;;;5.87;3.30;;;7.70;99.90;;;;;;5003332;28;20052;-70
2023/05/18 03:57:48;;;;;;;9.00;3.27;;;7.70;99.90;;;;;;4967859;28;20037;-70
2023/05/18 04:00:14;;;;;;;9.13;3.33;;;7.70;99.90;;;;;;5003120;28;20046;-70
2023/05/18 04:02:41;;;;;;;7.77;3.57;;;7.80;99.90;;;;;;5005351;28;20521;-70
2023/05/18 04:05:07;;;;;;;5.00;3.00;;;7.70;99.90;;;;;;4974481;28;20053;-70
2023/05/18 04:07:32;;;;;;;5.60;3.20;;;7.80;99.90;;;;;;4984227;28;20057;-70
2023/05/18 04:09:58;;;;;;;9.60;2.73;;;7.70;99.90;;;;;;4976505;28;20046;-70
2023/05/18 04:12:24;;;;;;;9.77;3.60;;;7.80;99.90;;;;;;4982624;28;20042;-70
2023/05/18 04:14:50;;;;;;;7.37;3.30;;;7.80;99.90;;;;;;4988274;28;20109;-70
2023/05/18 04:17:16;;;;;;;6.90;3.10;;;7.80;99.90;;;;;;4984011;28;20491;-70
2023/05/18 04:19:42;;;;;;;5.63;3.17;;;7.90;99.90;;;;;;4999172;28;20131;-70
2023/05/18 04:22:08;;;;;;;7.90;3.23;;;7.90;99.90;;;;;;4998985;28;20092;-70
2023/05/18 04:24:35;;;;;;;6.60;3.10;;;8.00;99.90;;;;;;5015969;28;20053;-70
2023/05/18 04:27:01;;;;;;;8.13;2.90;;;8.00;99.90;;;;;;4995864;28;20049;-70
2023/05/18 04:29:28;;;;;;;9.17;3.30;;;8.10;99.90;;;;;;5014753;28;20045;-70
2023/05/18 04:32:00;;;;;;;6.83;3.60;;;8.10;99.90;;;;;;4981714;28;20140;-70
2023/05/18 04:34:27;;;;;;;7.95;3.28;;;8.20;99.90;;;;;;5007906;28;20045;-70
2023/05/18 04:36:57;;;;;;;8.37;3.03;;;8.20;99.90;;;;;;5009907;28;20079;-70
2023/05/18 04:39:24;;;;;;;7.23;3.10;;;8.20;99.90;;;;;;5013047;28;20121;-70
2023/05/18 04:42:03;;;;;;;8.47;3.20;;;8.30;99.90;;;;;;4999498;28;20045;-70
2023/05/18 04:44:32;;;;;;;10.27;3.83;;;8.30;99.90;;;;;;5011959;28;20056;-70
2023/05/18 04:46:58;;;;;;;8.33;3.63;;;8.30;99.90;;;;;;5021013;28;20463;-70
2023/05/18 04:49:25;;;;;;;8.87;3.53;;;8.30;99.90;;;;;;4987237;28;20101;-70
2023/05/18 04:51:55;;;;;;;9.53;3.43;;;8.30;99.90;;;;;;4992093;28;20105;-70
2023/05/18 04:54:22;;;;;;;7.90;3.43;;;8.40;99.90;;;;;;5017623;28;20056;-70
2023/05/18 04:56:49;;;;;;;6.23;3.30;;;8.40;99.90;;;;;;4998560;28;20416;-70
2023/05/18 04:59:14;;;;;;;6.97;3.10;;;8.50;99.90;;;;;;4999857;28;20053;-70
2023/05/18 05:01:40;;;;;;;8.90;3.20;;;8.50;99.90;;;;;;4998983;28;20113;-69
2023/05/18 05:04:06;;;;;;;7.37;2.90;;;8.60;99.90;;;;;;4982417;28;20077;-69
2023/05/18 05:06:31;;;;;;;6.53;3.00;;;8.60;99.90;;;;;;4969322;28;20060;-70
2023/05/18 05:08:57;;;;;;;6.00;3.07;;;8.60;99.90;;;;;;5005081;28;20034;-69
2023/05/18 05:11:23;;;;;;;7.30;2.93;;;8.70;99.90;;;;;;5007430;28;20053;-71
2023/05/18 05:13:49;;;;;;;7.33;3.23;;;8.70;99.90;;;;;;4995709;28;20049;-70
2023/05/18 05:16:14;;;;;;;7.40;3.00;;;8.70;99.90;;;;;;5021951;28;20056;-70
2023/05/18 05:18:40;;;;;;;5.70;3.03;;;8.80;99.90;;;;;;4992894;28;20545;-70
2023/05/18 05:21:06;;;;;;;5.17;3.23;;;8.80;99.90;;;;;;4976956;28;20096;-70
2023/05/18 05:23:32;;;;;;;4.63;3.23;;;8.80;99.90;;;;;;4983927;28;20124;-70
2023/05/18 05:25:57;;;;;;;6.67;2.67;;;8.90;99.90;;;;;;5011629;28;20136;-70
2023/05/18 05:28:23;;;;;;;6.27;2.87;;;8.90;99.90;;;;;;4984617;28;20105;-70
2023/05/18 05:30:49;;;;;;;8.17;2.83;;;8.90;99.90;;;;;;4995405;28;20049;-70
2023/05/18 05:33:14;;;;;;;11.50;2.77;;;8.90;99.90;;;;;;4969662;28;20050;-70
2023/05/18 05:35:40;;;;;;;8.23;2.93;;;9.00;99.90;;;;;;5010053;28;20045;-70
2023/05/18 05:38:06;;;;;;;7.77;2.67;;;9.00;99.90;;;;;;4980176;28;20073;-70
2023/05/18 05:40:32;;;;;;;6.80;2.70;;;9.00;99.90;;;;;;4976216;28;20045;-70
2023/05/18 05:42:57;;;;;;;9.03;2.23;;;9.00;99.90;;;;;;4967980;28;20513;-70
2023/05/18 05:45:23;;;;;;;8.23;2.57;;;9.00;99.90;;;;;;5003647;28;20037;-70
2023/05/18 05:47:49;;;;;;;5.13;2.47;;;9.10;99.90;;;;;;4985693;28;20465;-70
2023/05/18 05:50:15;;;;;;;6.33;2.80;;;9.20;99.90;;;;;;4990604;28;20053;-71
2023/05/18 05:52:40;;;;;;;6.00;2.30;;;9.20;99.90;;;;;;5000950;28;20162;-69
2023/05/18 05:55:06;;;;;;;6.60;2.97;;;9.20;99.90;;;;;;4999794;28;20179;-69
2023/05/18 05:57:32;;;;;;;6.20;2.43;;;9.20;99.90;;;;;;5020085;28;20038;-69
2023/05/18 05:59:58;;;;;;;8.63;2.80;;;9.20;99.90;;;;;;4996295;28;20128;-69
2023/05/18 06:02:23;;;;;;;7.47;2.70;;;9.10;99.90;;;;;;5033247;28;20080;-70
2023/05/18 06:04:49;;;;;;;6.83;2.60;;;9.10;99.90;;;;;;4986909;28;20537;-69
2023/05/18 06:07:15;;;;;;;5.87;2.70;;;9.10;99.90;;;;;;4996612;28;20050;-69
2023/05/18 06:09:40;;;;;;;6.63;2.53;;;9.20;99.90;;;;;;5003424;28;20049;-70
2023/05/18 06:12:06;;;;;;;5.73;2.50;;;9.20;99.90;;;;;;5011154;28;20067;-69
2023/05/18 06:14:32;;;;;;;5.93;2.83;;;9.20;99.90;;;;;;4987496;28;20049;-70
2023/05/18 06:16:58;;;;;;;6.67;2.37;;;9.20;99.90;;;;;;4996370;28;20084;-69
2023/05/18 06:19:24;;;;;;;9.47;2.83;;;9.30;99.90;;;;;;5023025;28;20052;-70
2023/05/18 06:21:49;;;;;;;8.60;3.00;;;9.30;99.90;;;;;;4984035;28;20108;-70
2023/05/18 06:24:15;;;;;;;7.57;2.47;;;9.30;99.90;;;;;;4965455;28;20129;-70
2023/05/18 06:26:41;;;;;;;7.20;2.50;;;9.30;99.90;;;;;;4958391;28;20074;-70
2023/05/18 06:29:07;;;;;;;8.70;2.77;;;9.40;99.90;;;;;;4994191;28;20055;-69
2023/05/18 06:31:34;;;;;;;6.47;2.43;;;9.50;99.90;;;;;;4988373;28;20500;-69
2023/05/18 06:34:00;;;;;;;7.50;2.83;;;9.50;99.90;;;;;;4991820;28;20041;-69
2023/05/18 06:36:25;;;;;;;6.27;2.77;;;9.60;99.90;;;;;;4996793;28;20809;-69
2023/05/18 06:38:51;;;;;;;5.47;2.50;;;9.60;99.90;;;;;;4948522;28;20403;-70
2023/05/18 06:41:17;;;;;;;8.53;2.80;;;9.70;99.90;;;;;;4980041;28;20076;-70
2023/05/18 06:43:42;;;;;;;6.97;2.07;;;9.70;99.90;;;;;;4977607;28;20043;-70
2023/05/18 06:46:08;;;;;;;7.00;2.53;;;9.80;99.90;;;;;;5017995;28;20041;-70
2023/05/18 06:48:36;;;;;;;4.47;2.47;;;9.70;99.90;;;;;;4967403;28;20084;-69
2023/05/18 06:51:01;;;;;;;6.33;2.50;;;9.70;99.90;;;;;;4994895;28;20084;-69
2023/05/18 06:53:27;;;;;;;6.03;2.50;;;9.70;99.90;;;;;;4984864;28;20053;-70
2023/05/18 06:55:53;;;;;;;6.60;2.50;;;9.80;99.90;;;;;;4982456;28;20066;-69
2023/05/18 06:58:19;;;;;;;8.27;2.70;;;9.80;99.90;;;;;;4982734;28;20042;-69
2023/05/18 07:00:45;;;;;;;7.13;2.50;;;9.90;99.90;;;;;;4996715;28;20124;-68
2023/05/18 07:03:11;;;;;;;5.57;1.90;;;10.10;99.90;;;;;;5013971;28;20100;-68
2023/05/18 07:05:36;;;;;;;7.23;2.43;;;10.30;99.90;;;;;;4990479;28;20057;-69
2023/05/18 07:08:03;;;;;;;9.13;2.40;;;10.40;99.90;;;;;;4997459;28;20099;-68
2023/05/18 07:10:29;;;;;;;7.30;2.60;;;10.50;99.90;;;;;;4977876;28;20047;-70
2023/05/18 07:12:56;;;;;;;5.63;2.80;;;10.60;99.90;;;;;;4982314;28;20045;-69
2023/05/18 07:15:24;;;;;;;4.13;2.50;;;10.70;99.90;;;;;;4975854;28;20042;-70
2023/05/18 07:17:50;;;;;;;7.27;2.47;;;10.70;99.90;;;;;;4979300;28;20052;-71
2023/05/18 07:20:16;;;;;;;6.47;2.60;;;10.80;99.90;;;;;;4960673;28;20034;-70
2023/05/18 07:22:41;;;;;;;8.20;3.10;;;10.80;99.90;;;;;;4992751;28;20081;-69
2023/05/18 07:25:08;;;;;;;6.17;2.40;;;10.90;99.90;;;;;;4945787;28;20061;-69
2023/05/18 07:27:33;;;;;;;7.97;2.83;;;10.90;99.90;;;;;;4992498;28;20137;-70
2023/05/18 07:29:59;;;;;;;7.70;3.03;;;11.00;99.90;;;;;;4997995;28;20524;-69
2023/05/18 07:32:25;;;;;;;7.30;2.63;;;11.10;99.90;;;;;;4988858;28;20133;-70
2023/05/18 07:34:50;;;;;;;5.73;2.40;;;10.90;99.90;;;;;;4964843;28;20049;-79
2023/05/18 07:37:16;;;;;;;7.73;2.83;;;10.80;99.90;;;;;;4997056;28;20107;-70
2023/05/18 07:39:42;;;;;;;10.07;2.53;;;10.80;99.90;;;;;;4963371;28;20048;-70
2023/05/18 07:42:08;;;;;;;8.20;2.87;;;10.90;99.90;;;;;;4977665;28;20118;-69
2023/05/18 07:44:33;;;;;;;6.33;2.90;;;11.00;99.90;;;;;;4972950;28;20053;-70
2023/05/18 07:46:59;;;;;;;7.63;2.93;;;11.10;99.90;;;;;;4978200;28;20057;-70
2023/05/18 07:49:25;;;;;;;9.73;2.50;;;11.20;99.90;;;;;;4991365;28;20850;-70
2023/05/18 07:51:51;;;;;;;8.07;2.37;;;11.30;99.90;;;;;;4944476;28;20580;-70
2023/05/18 07:54:18;;;;;;;4.90;2.30;;;11.30;99.90;;;;;;4993481;28;20072;-69
2023/05/18 07:56:52;;;;;;;5.10;2.30;;;11.20;99.90;;;;;;5013709;28;20511;-73
2023/05/18 07:59:19;;;;;;;6.60;2.80;;;11.40;99.90;;;;;;4977211;28;20061;-70
2023/05/18 08:01:44;;;;;;;5.47;2.47;;;11.40;99.90;;;;;;4978704;28;20041;-70
2023/05/18 08:04:10;;;;;;;5.97;2.33;;;11.40;99.90;;;;;;4980274;28;20046;-70
2023/05/18 08:06:36;;;;;;;7.23;2.30;;;11.30;99.90;;;;;;4994818;28;20061;-70
2023/05/18 08:09:02;;;;;;;8.23;2.60;;;11.40;99.90;;;;;;4965770;28;20054;-70
2023/05/18 08:11:28;;;;;;;6.33;3.07;;;11.50;99.90;;;;;;4965190;28;20045;-70
2023/05/18 08:13:54;;;;;;;6.90;2.60;;;11.60;99.90;;;;;;5009693;28;20134;-70
2023/05/18 08:16:19;;;;;;;5.93;2.50;;;11.80;99.90;;;;;;5016461;28;20052;-70
2023/05/18 08:18:45;;;;;;;4.93;2.30;;;12.00;99.90;;;;;;4978762;28;20050;-69
2023/05/18 08:21:11;;;;;;;6.83;2.43;;;12.20;99.90;;;;;;4997825;28;20053;-69
2023/05/18 08:23:37;;;;;;;8.73;2.70;;;12.40;99.90;;;;;;4978483;28;20148;-69
2023/05/18 08:26:03;;;;;;;6.77;2.40;;;12.40;99.90;;;;;;4994586;28;20056;-70
2023/05/18 08:28:29;;;;;;;5.43;2.25;;;12.50;99.90;;;;;;4977742;28;20046;-69
2023/05/18 08:30:55;;;;;;;8.93;2.80;;;12.60;99.90;;;;;;4969268;28;20034;-70
2023/05/18 08:33:22;;;;;;;6.10;2.40;;;12.60;99.90;;;;;;4977587;28;20120;-69
2023/05/18 08:35:48;;;;;;;7.37;2.90;;;12.50;99.90;;;;;;5011690;28;20054;-70
2023/05/18 08:38:15;;;;;;;8.30;2.80;;;12.70;99.90;;;;;;4985606;28;20045;-69
2023/05/18 08:41:14;;;;;;;6.60;2.85;;;12.80;99.90;;;;;;4995799;28;20065;-69
2023/05/18 08:43:44;;;;;;;5.55;2.33;;;12.90;99.90;;;;;;4997948;28;20049;-70
2023/05/18 08:46:19;;;;;;;7.75;2.55;;;13.10;99.90;;;;;;4973269;28;20049;-69
2023/05/18 08:48:46;;;;;;;4.55;2.20;;;13.20;99.90;;;;;;4999133;28;20683;-69
2023/05/18 08:51:15;;;;;;;4.45;2.40;;;13.30;99.90;;;;;;4999677;28;20096;-69
2023/05/18 08:53:43;;;;;;;8.57;2.85;;;13.30;99.90;;;;;;4982921;28;20077;-69
2023/05/18 08:56:10;;;;;;;5.38;2.20;;;13.30;99.90;;;;;;5014048;28;20045;-69
2023/05/18 08:58:44;;;;;;;3.97;2.50;;;13.20;99.90;;;;;;4999545;28;20050;-69
2023/05/18 09:01:10;;;;;;;7.30;2.60;;;13.30;99.90;;;;;;5017050;28;20037;-70
2023/05/18 09:03:38;;;;;;;6.32;2.70;;;13.20;99.90;;;;;;5016857;28;20049;-70
2023/05/18 09:06:05;;;;;;;6.18;2.42;;;13.10;99.90;;;;;;4982335;28;20049;-70
2023/05/18 09:08:31;;;;;;;6.85;2.55;;;13.00;99.90;;;;;;4983007;28;20042;-70
2023/05/18 09:10:58;;;;;;;5.20;2.75;;;13.10;99.90;;;;;;5016282;28;20097;-70
2023/05/18 09:13:25;;;;;;;5.95;2.38;;;13.20;99.90;;;;;;5012988;28;20050;-70
2023/05/18 09:15:51;;;;;;;6.25;2.60;;;13.30;99.90;;;;;;4982731;28;20062;-69
2023/05/18 09:18:17;;;;;;;8.73;3.13;;;13.00;99.90;;;;;;5015219;28;20060;-70
2023/05/18 09:20:43;;;;;;;5.28;2.65;;;13.00;99.90;;;;;;4998662;28;20138;-70
2023/05/18 09:23:11;;;;;;;6.00;2.63;;;12.90;99.90;;;;;;4996630;28;20169;-69
2023/05/18 09:25:45;;;;;;;8.35;3.53;;;12.90;99.90;;;;;;4997781;28;20061;-70
2023/05/18 09:28:13;;;;;;;5.25;2.83;;;12.70;99.90;;;;;;4997338;28;20076;-70
2023/05/18 09:30:42;;;;;;;5.55;2.70;;;12.50;99.90;;;;;;4984851;28;20433;-69
2023/05/18 09:33:20;;;;;;;4.73;2.50;;;12.40;99.90;;;;;;4993183;28;20124;-69
2023/05/18 09:35:46;;;;;;;5.18;2.65;;;12.70;99.90;;;;;;4965925;28;20052;-69
2023/05/18 09:38:20;;;;;;;7.15;2.95;;;12.90;99.90;;;;;;4999142;28;20511;-69
2023/05/18 09:40:47;;;;;;;5.05;2.50;;;13.10;99.90;;;;;;4982485;28;20270;-70
2023/05/18 09:43:15;;;;;;;5.85;2.20;;;13.40;99.90;;;;;;5015881;28;20058;-69
2023/05/18 09:45:43;;;;;;;5.40;2.72;;;13.30;99.90;;;;;;4984276;28;20056;-69
2023/05/18 09:48:09;;;;;;;5.75;3.03;;;13.30;99.90;;;;;;4995090;28;20042;-69
2023/05/18 09:50:36;;;;;;;6.18;2.63;;;13.20;99.90;;;;;;4979437;28;20039;-70
2023/05/18 09:53:05;;;;;;;7.40;3.00;;;13.10;99.90;;;;;;4981179;28;20563;-70
2023/05/18 09:55:31;;;;;;;6.25;3.20;;;13.40;99.90;;;;;;4979255;28;20050;-70
2023/05/18 09:57:57;;;;;;;5.43;2.67;;;13.50;99.90;;;;;;5016064;28;20042;-70
2023/05/18 10:00:24;;;;;;;8.77;3.05;;;13.60;99.90;;;;;;5014942;28;20140;-70
2023/05/18 10:02:53;;;;;;;6.43;2.83;;;13.60;99.90;;;;;;5015458;28;20053;-70
2023/05/18 10:05:26;;;;;;;6.65;2.97;;;13.60;99.90;;;;;;5000561;28;20044;-69
2023/05/18 10:07:53;;;;;;;8.57;3.03;;;13.80;99.90;;;;;;5012503;28;20073;-69
2023/05/18 10:10:22;;;;;;;9.15;2.92;;;14.00;99.90;;;;;;5016238;28;20052;-70
2023/05/18 10:12:52;;;;;;;7.63;3.05;;;14.00;98.50;;;;;;4997609;28;20053;-69
2023/05/18 10:15:20;;;;;;;5.88;3.30;;;13.80;98.50;;;;;;4978715;28;20041;-69
2023/05/18 10:17:49;;;;;;;5.15;2.67;;;13.70;99.80;;;;;;5007040;28;20037;-70
2023/05/18 10:20:18;;;;;;;6.55;2.55;;;13.90;99.90;;;;;;5015310;28;20042;-70
2023/05/18 10:22:46;;;;;;;5.82;2.90;;;14.00;99.90;;;;;;4965912;28;20042;-70
2023/05/18 10:25:17;;;;;;;7.03;2.90;;;14.20;98.80;;;;;;5014816;28;20053;-69
2023/05/18 10:27:44;;;;;;;7.20;2.60;;;14.40;92.30;;;;;;4997657;28;20076;-70
2023/05/18 10:30:10;;;;;;;7.30;3.15;;;14.60;99.90;;;;;;4997562;28;20291;-69
2023/05/18 10:32:36;;;;;;;5.60;2.85;;;14.80;95.50;;;;;;4998500;28;20041;-69
2023/05/18 10:35:06;;;;;;;9.40;3.03;;;15.00;97.60;;;;;;4995281;28;20297;-70
2023/05/18 10:37:34;;;;;;;7.25;2.92;;;15.10;98.70;;;;;;4981639;28;20044;-70
2023/05/18 10:40:02;;;;;;;7.93;3.00;;;15.30;91.00;;;;;;4979578;28;20045;-70
2023/05/18 10:42:29;;;;;;;5.82;2.90;;;15.40;89.00;;;;;;4995970;28;20060;-70
2023/05/18 10:44:56;;;;;;;5.57;2.70;;;15.50;84.40;;;;;;4977761;28;20427;-69
2023/05/18 10:47:26;;;;;;;5.43;2.60;;;15.30;81.80;;;;;;4979659;28;20053;-70
2023/05/18 10:49:53;;;;;;;5.90;3.30;;;15.50;87.90;;;;;;4970302;28;20034;-70
2023/05/18 10:52:19;;;;;;;10.48;3.20;;;15.30;83.80;;;;;;5011028;28;20038;-70
2023/05/18 10:54:48;;;;;;;5.57;3.20;;;15.00;83.90;;;;;;4996271;28;20097;-69
2023/05/18 10:57:18;;;;;;;7.40;3.30;;;14.90;86.00;;;;;;4981098;28;20084;-70
2023/05/18 10:59:46;;;;;;;6.50;3.33;;;14.90;84.00;;;;;;4992503;28;20060;-70
2023/05/18 11:02:17;;;;;;;8.05;3.58;;;14.90;86.40;;;;;;4979897;28;20069;-71
2023/05/18 11:04:46;;;;;;;9.38;3.60;;;15.00;90.30;;;;;;4976531;28;20041;-69
2023/05/18 11:07:12;;;;;;;7.07;3.10;;;15.30;90.60;;;;;;4964755;28;20050;-69
2023/05/18 11:09:43;;;;;;;7.85;3.05;;;15.60;86.20;;;;;;4996518;28;20230;-69
2023/05/18 11:12:13;;;;;;;6.43;3.40;;;15.90;82.00;;;;;;5020568;28;20560;-69
2023/05/18 11:14:51;;;;;;;7.57;3.70;;;15.50;77.70;;;;;;5016167;28;20056;-70
2023/05/18 11:17:24;;;;;;;7.20;3.92;;;15.50;82.00;;;;;;5012672;28;20046;-70
2023/05/18 11:20:08;;;;;;;5.88;3.47;;;15.50;84.90;;;;;;4987188;28;20542;-70
2023/05/18 11:22:50;;;;;;;7.63;3.67;;;15.40;76.80;;;;;;5010583;28;20057;-69
2023/05/18 11:25:27;;;;;;;6.72;3.20;;;15.20;80.70;;;;;;4994019;28;20057;-70
2023/05/18 11:28:00;;;;;;;5.88;3.50;;;15.20;80.20;;;;;;5023965;28;20080;-69
2023/05/18 11:30:43;;;;;;;4.85;2.75;;;14.80;81.00;;;;;;4983567;28;20046;-70
2023/05/18 11:33:29;;;;;;;7.22;3.05;;;14.50;83.20;;;;;;5000778;28;20045;-70
2023/05/18 11:36:14;;;;;;;5.18;3.05;;;14.50;93.10;;;;;;5022373;28;20245;-70
2023/05/18 11:39:03;;;;;;;6.68;3.17;;;14.70;91.80;;;;;;5007450;28;20680;-70
2023/05/18 11:41:38;;;;;;;5.50;2.92;;;14.80;87.60;;;;;;4981525;28;20052;-69
2023/05/18 11:44:16;;;;;;;12.75;3.92;;;14.90;86.60;;;;;;4993870;28;20093;-70
2023/05/18 11:46:57;;;;;;;7.43;3.00;;;15.00;82.40;;;;;;5001684;28;20064;-70
2023/05/18 11:49:29;;;;;;;5.30;3.42;;;14.90;85.90;;;;;;4986251;28;20400;-70
2023/05/18 11:52:13;;;;;;;5.63;2.97;;;15.20;94.50;;;;;;4981954;28;20053;-70
2023/05/18 11:54:41;;;;;;;10.27;3.45;;;15.60;94.10;;;;;;5009342;28;20082;-70
2023/05/18 11:57:07;;;;;;;8.75;3.70;;;15.90;82.40;;;;;;5006203;28;20077;-70
2023/05/18 11:59:37;;;;;;;8.25;3.30;;;16.10;78.70;;;;;;4955719;28;20054;-69
2023/05/18 12:02:03;;;;;;;6.00;3.20;;;16.20;77.10;;;;;;5021623;28;20042;-69
2023/05/18 12:04:31;;;;;;;3.90;3.00;;;15.90;76.30;;;;;;4966807;28;20033;-70
2023/05/18 12:06:57;;;;;;;6.13;2.83;;;15.80;76.30;;;;;;5002837;28;20101;-70
2023/05/18 12:09:24;;;;;;;6.68;3.30;;;15.70;75.60;;;;;;5001071;28;20048;-70
2023/05/18 12:11:51;;;;;;;6.97;3.47;;;15.60;76.30;;;;;;4986470;28;20080;-70
2023/05/18 12:14:19;;;;;;;6.72;3.00;;;15.50;74.90;;;;;;5027782;28;20037;-69
2023/05/18 12:16:46;;;;;;;7.38;3.45;;;15.50;75.90;;;;;;5017480;28;20045;-69
2023/05/18 12:19:12;;;;;;;7.30;3.40;;;15.30;76.70;;;;;;5007374;28;20064;-69
2023/05/18 12:21:38;;;;;;;7.63;3.15;;;15.40;79.00;;;;;;5029497;28;20050;-70
2023/05/18 12:24:04;;;;;;;7.65;3.22;;;15.70;83.30;;;;;;5022430;28;20505;-70
2023/05/18 12:26:30;;;;;;;5.32;2.88;;;16.00;78.00;;;;;;5022687;28;20045;-70
2023/05/18 12:28:59;;;;;;;8.65;2.88;;;16.00;75.80;;;;;;5000445;28;20065;-68
2023/05/18 12:31:25;;;;;;;7.47;3.40;;;16.00;75.00;;;;;;4976737;28;20050;-69
2023/05/18 12:33:53;;;;;;;8.63;3.75;;;16.00;74.80;;;;;;4998687;28;20081;-69
2023/05/18 12:36:19;;;;;;;5.20;2.92;;;15.70;72.40;;;;;;4999802;28;20087;-69
2023/05/18 12:38:50;;;;;;;5.95;2.63;;;15.90;74.30;;;;;;5001337;28;20057;-69
2023/05/18 12:41:26;;;;;;;5.75;2.40;;;16.00;73.50;;;;;;5002339;28;20054;-70
2023/05/18 12:43:53;;;;;;;6.85;2.75;;;16.10;70.70;;;;;;5017184;28;20060;-70
2023/05/18 12:46:23;;;;;;;9.13;3.13;;;15.90;70.90;;;;;;5036441;28;20037;-70
2023/05/18 12:48:56;;;;;;;7.13;2.95;;;15.90;70.70;;;;;;4985961;28;20057;-69
2023/05/18 12:51:22;;;;;;;5.97;3.00;;;16.10;73.40;;;;;;5018269;28;20037;-70
2023/05/18 12:53:49;;;;;;;5.97;2.78;;;16.20;73.00;;;;;;5028379;28;20053;-69